Time;durP1;ratioP1;P1;durP2;ratioP2;P2;SDS_P1;SDS_P2;PMS_P1;PMS_P2;Temp;Humidity;BMP_temperature;BMP_pressure;BME280_temperature;BME280_humidity;BME280_pressure;Samples;Min_cycle;Max_cycle;Signal;HPM_P1;HPM_P2
2023/06/08 00:00:56;;;;;;;6.47;3.50;;;;;;;18.32;53.46;94994.78;5085594;28;20031;-76
2023/06/08 00:03:22;;;;;;;5.45;3.50;;;;;;;18.29;53.15;94993.75;5085476;28;20028;-75
2023/06/08 00:05:50;;;;;;;4.63;2.90;;;;;;;18.23;53.05;94997.69;5084126;28;20059;-76
2023/06/08 00:08:16;;;;;;;4.22;3.10;;;;;;;18.06;53.46;95000.22;5085417;28;20173;-76
2023/06/08 00:10:43;;;;;;;4.38;3.20;;;;;;;17.88;53.58;95011.59;5084182;28;20031;-76
2023/06/08 00:13:08;;;;;;;6.85;2.63;;;;;;;17.83;53.73;95001.16;5084299;28;20343;-76
2023/06/08 00:15:34;;;;;;;5.75;2.95;;;;;;;17.62;53.98;95005.88;5084012;28;20032;-76
2023/06/08 00:18:02;;;;;;;5.05;2.80;;;;;;;17.53;54.26;95006.75;5085488;28;20498;-76
2023/06/08 00:20:28;;;;;;;5.28;3.10;;;;;;;17.50;54.37;95005.72;5089928;28;20029;-76
2023/06/08 00:22:54;;;;;;;5.05;2.70;;;;;;;17.53;54.16;95007.50;5085914;28;20104;-77
2023/06/08 00:25:20;;;;;;;4.38;2.50;;;;;;;17.52;54.01;95008.75;5066528;28;20490;-76
2023/06/08 00:27:45;;;;;;;4.07;3.20;;;;;;;17.39;54.36;95011.06;5087868;28;20027;-77
2023/06/08 00:30:13;;;;;;;3.55;2.63;;;;;;;17.22;54.38;95013.56;5083654;28;20483;-76
2023/06/08 00:32:39;;;;;;;5.28;2.90;;;;;;;17.21;54.79;95012.03;5083780;28;20032;-76
2023/06/08 00:35:05;;;;;;;3.83;2.60;;;;;;;17.27;54.69;95003.81;5083818;28;20023;-76
2023/06/08 00:37:30;;;;;;;3.85;2.60;;;;;;;17.25;54.82;95018.16;5083742;28;20031;-76
2023/06/08 00:39:56;;;;;;;4.38;2.90;;;;;;;17.13;54.91;95010.88;5083944;28;20111;-76
2023/06/08 00:42:21;;;;;;;5.82;2.90;;;;;;;17.02;55.08;95010.66;5083168;28;20024;-75
2023/06/08 00:44:46;;;;;;;6.30;3.20;;;;;;;17.01;55.51;95011.91;5084567;28;20044;-75
2023/06/08 00:47:12;;;;;;;3.10;2.28;;;;;;;17.03;55.48;95006.63;5084464;28;20111;-75
2023/06/08 00:49:38;;;;;;;3.38;2.22;;;;;;;17.08;55.17;95000.44;5083518;28;20019;-75
2023/06/08 00:52:04;;;;;;;4.07;3.08;;;;;;;16.92;55.70;95000.91;5084835;28;20024;-75
2023/06/08 00:54:32;;;;;;;6.63;2.92;;;;;;;16.90;55.83;94997.81;5083575;28;20024;-75
2023/06/08 00:57:00;;;;;;;3.53;2.55;;;;;;;16.90;55.85;94997.81;5083684;28;20032;-76
2023/06/08 00:59:28;;;;;;;3.78;2.70;;;;;;;17.02;55.60;95001.56;5083026;28;20108;-76
2023/06/08 01:01:56;;;;;;;5.20;2.88;;;;;;;17.02;55.51;95002.34;5083875;28;20263;-76
2023/06/08 01:04:23;;;;;;;5.40;2.90;;;;;;;17.07;55.53;94995.34;5083373;28;20085;-76
2023/06/08 01:06:54;;;;;;;4.60;2.75;;;;;;;17.11;55.41;94993.94;5066596;28;20449;-76
2023/06/08 01:09:36;;;;;;;4.88;3.08;;;;;;;17.02;55.67;94994.00;5083772;28;20047;-76
2023/06/08 01:12:29;;;;;;;4.47;2.80;;;;;;;17.07;55.34;94998.91;5083277;28;20059;-76
2023/06/08 01:15:17;;;;;;;4.95;2.75;;;;;;;17.00;55.62;94990.94;5083543;28;20028;-75
2023/06/08 01:17:52;;;;;;;6.82;2.60;;;;;;;16.91;55.84;94993.81;5084850;28;20070;-75
2023/06/08 01:20:34;;;;;;;5.85;2.92;;;;;;;16.95;55.80;94997.16;5083866;28;20507;-76
2023/06/08 01:23:25;;;;;;;5.03;2.90;;;;;;;16.84;56.07;95000.50;5091090;28;20036;-77
2023/06/08 01:25:55;;;;;;;3.72;2.63;;;;;;;16.69;56.59;94989.34;5089030;28;20039;-76
2023/06/08 01:28:22;;;;;;;4.88;2.70;;;;;;;16.71;56.71;95000.75;5084427;28;20028;-76
2023/06/08 01:30:51;;;;;;;3.55;2.58;;;;;;;16.75;56.34;95002.59;5084609;28;20126;-76
2023/06/08 01:33:22;;;;;;;4.63;2.50;;;;;;;16.57;56.87;95006.25;5082867;28;20181;-76
2023/06/08 01:36:08;;;;;;;4.30;2.65;;;;;;;16.52;56.90;95007.69;5083630;28;20020;-76
2023/06/08 01:38:40;;;;;;;5.22;2.92;;;;;;;16.49;57.20;95003.06;5083425;28;20040;-76
2023/06/08 01:41:10;;;;;;;5.40;2.92;;;;;;;16.52;57.00;94999.38;5084754;28;20035;-76
2023/06/08 01:43:37;;;;;;;4.63;3.00;;;;;;;16.64;56.92;95003.13;5082799;28;20024;-76
2023/06/08 01:46:04;;;;;;;6.20;3.15;;;;;;;16.62;56.37;94997.25;5066048;28;20020;-76
2023/06/08 01:48:31;;;;;;;6.60;3.05;;;;;;;16.45;56.80;95000.47;5083118;28;20031;-76
2023/06/08 01:50:57;;;;;;;5.32;3.28;;;;;;;16.43;57.17;95002.19;5084293;28;20025;-76
2023/06/08 01:53:22;;;;;;;6.70;3.25;;;;;;;16.42;57.16;95006.97;5082796;28;20039;-76
2023/06/08 01:55:51;;;;;;;7.65;2.92;;;;;;;16.36;57.12;94995.00;5084028;28;20433;-76
2023/06/08 01:58:16;;;;;;;3.72;2.78;;;;;;;16.40;56.84;94998.38;5088526;28;20513;-76
2023/06/08 02:00:42;;;;;;;5.18;3.33;;;;;;;16.47;56.84;94997.25;5086430;28;20024;-76
2023/06/08 02:03:07;;;;;;;4.25;2.90;;;;;;;16.45;56.91;94999.69;5069909;28;20467;-78
2023/06/08 02:05:32;;;;;;;5.68;2.83;;;;;;;16.44;56.69;94992.63;5086288;28;20059;-76
2023/06/08 02:07:58;;;;;;;5.35;2.72;;;;;;;16.36;57.26;94989.44;5086264;28;20128;-76
2023/06/08 02:10:23;;;;;;;5.00;3.03;;;;;;;16.47;56.89;94988.91;5086335;28;20035;-77
2023/06/08 02:12:48;;;;;;;4.35;2.85;;;;;;;16.45;56.53;94994.91;5086404;28;20051;-76
2023/06/08 02:15:14;;;;;;;3.33;2.85;;;;;;;16.41;56.97;94982.50;5088007;28;20050;-76
2023/06/08 02:17:41;;;;;;;5.00;2.92;;;;;;;16.25;57.36;94986.44;5087433;28;20095;-77
2023/06/08 02:20:07;;;;;;;4.03;2.67;;;;;;;16.24;57.52;94984.16;5069871;28;20028;-77
2023/06/08 02:22:33;;;;;;;4.50;3.15;;;;;;;16.26;57.51;94984.44;5069159;28;20032;-76
2023/06/08 02:24:59;;;;;;;5.35;3.33;;;;;;;16.12;57.79;94988.69;5085892;28;20478;-76
2023/06/08 02:27:25;;;;;;;4.60;2.80;;;;;;;15.96;57.96;94980.78;5086222;28;20031;-76
2023/06/08 02:29:52;;;;;;;5.55;3.17;;;;;;;16.07;57.91;94983.78;5088926;28;20043;-75
2023/06/08 02:32:18;;;;;;;7.25;3.13;;;;;;;16.02;57.87;94979.66;5091794;28;20028;-77
2023/06/08 02:34:53;;;;;;;5.38;2.92;;;;;;;15.91;58.47;94984.97;5086929;28;20047;-76
2023/06/08 02:37:20;;;;;;;4.90;3.17;;;;;;;15.72;58.79;94978.75;5086494;28;20085;-76
2023/06/08 02:39:45;;;;;;;3.40;2.85;;;;;;;15.76;58.59;94978.56;5085584;28;20391;-76
2023/06/08 02:42:11;;;;;;;5.95;3.13;;;;;;;15.79;58.74;94981.19;5087543;28;20043;-76
2023/06/08 02:44:37;;;;;;;5.32;3.08;;;;;;;15.82;58.62;94982.22;5085672;28;20474;-77
2023/06/08 02:47:02;;;;;;;7.30;3.17;;;;;;;15.89;58.45;94987.44;5087176;28;20099;-76
2023/06/08 02:49:28;;;;;;;5.40;3.40;;;;;;;15.89;58.60;94990.22;5085666;28;20502;-77
2023/06/08 02:51:53;;;;;;;6.57;3.13;;;;;;;15.84;58.75;94988.09;5087067;28;20020;-77
2023/06/08 02:54:19;;;;;;;5.07;3.20;;;;;;;15.82;58.22;94990.53;5087567;28;20075;-77
2023/06/08 02:56:45;;;;;;;6.40;3.03;;;;;;;15.91;58.37;94994.03;5085410;28;20020;-77
2023/06/08 02:59:10;;;;;;;4.28;2.80;;;;;;;16.03;58.19;94997.06;5087412;28;20020;-76
2023/06/08 03:01:36;;;;;;;4.45;2.97;;;;;;;16.13;57.97;94998.56;5085519;28;20047;-76
2023/06/08 03:04:02;;;;;;;7.85;3.00;;;;;;;16.22;57.70;94995.69;5086944;28;20028;-76
2023/06/08 03:06:33;;;;;;;4.40;3.13;;;;;;;16.16;57.61;95005.91;5086623;28;20483;-76
2023/06/08 03:08:58;;;;;;;6.07;3.05;;;;;;;16.27;57.39;95003.38;5085776;28;20028;-76
2023/06/08 03:11:23;;;;;;;5.63;3.33;;;;;;;16.24;57.07;95003.56;5091135;28;20101;-76
2023/06/08 03:13:49;;;;;;;5.07;3.05;;;;;;;16.17;57.13;94988.81;5086398;28;20050;-76
2023/06/08 03:16:15;;;;;;;5.57;3.28;;;;;;;16.25;57.10;95005.88;5086992;28;20028;-76
2023/06/08 03:18:41;;;;;;;6.75;3.13;;;;;;;16.17;57.13;94994.38;5084836;28;20035;-77
2023/06/08 03:21:12;;;;;;;5.93;3.10;;;;;;;16.27;56.85;94992.28;5085208;28;20027;-76
2023/06/08 03:23:38;;;;;;;4.90;3.22;;;;;;;16.33;56.76;94990.38;5085326;28;20024;-76
2023/06/08 03:26:04;;;;;;;6.90;3.22;;;;;;;16.36;56.54;94983.13;5085252;28;20055;-76
2023/06/08 03:28:29;;;;;;;3.85;2.97;;;;;;;16.43;56.32;94983.53;5085261;28;20366;-75
2023/06/08 03:30:55;;;;;;;5.13;2.90;;;;;;;16.36;56.10;94994.25;5084966;28;20081;-76
2023/06/08 03:33:21;;;;;;;5.63;3.38;;;;;;;16.49;56.14;94997.53;5085341;28;20081;-75
2023/06/08 03:35:48;;;;;;;5.55;3.20;;;;;;;16.54;55.83;95001.66;5090258;28;20020;-76
2023/06/08 03:38:14;;;;;;;4.57;3.33;;;;;;;16.59;55.97;95009.31;5085725;28;20028;-76
2023/06/08 03:40:40;;;;;;;6.38;3.28;;;;;;;16.64;55.84;95003.88;5086497;28;20032;-76
2023/06/08 03:43:05;;;;;;;5.82;3.80;;;;;;;16.64;55.62;95015.00;5091281;28;20482;-76
2023/06/08 03:45:31;;;;;;;5.05;3.45;;;;;;;16.66;55.36;95004.16;5087963;28;20051;-76
2023/06/08 03:47:56;;;;;;;7.55;3.35;;;;;;;16.69;55.60;95014.34;5086079;28;20477;-76
2023/06/08 03:50:22;;;;;;;5.50;3.28;;;;;;;16.75;55.46;95006.16;5084500;28;20024;-75
2023/06/08 03:52:47;;;;;;;5.00;3.28;;;;;;;16.78;55.06;95012.75;5084475;28;20036;-76
2023/06/08 03:55:13;;;;;;;5.82;3.40;;;;;;;16.81;55.17;95011.81;5086134;28;20028;-76
2023/06/08 03:57:38;;;;;;;7.25;3.75;;;;;;;16.87;55.35;95009.91;5085900;28;20691;-76
2023/06/08 04:00:07;;;;;;;7.63;3.53;;;;;;;16.91;55.25;95022.34;5067430;28;20039;-75
2023/06/08 04:02:32;;;;;;;6.68;3.47;;;;;;;16.94;54.93;95018.63;5068078;28;20524;-76
2023/06/08 04:04:59;;;;;;;6.70;3.65;;;;;;;16.94;55.00;95015.06;5088292;28;20024;-76
2023/06/08 04:07:26;;;;;;;7.25;3.10;;;;;;;16.99;54.99;95023.50;5086328;28;20579;-75
2023/06/08 04:09:52;;;;;;;5.07;3.50;;;;;;;16.81;55.26;95017.34;5084197;28;20077;-76
2023/06/08 04:12:17;;;;;;;4.95;3.33;;;;;;;16.79;55.31;95014.28;5084598;28;20119;-75
2023/06/08 04:14:42;;;;;;;9.73;4.10;;;;;;;16.81;55.42;95009.03;5085345;28;20028;-75
2023/06/08 04:17:08;;;;;;;5.95;3.58;;;;;;;16.91;55.29;95013.25;5084141;28;20103;-76
2023/06/08 04:19:33;;;;;;;7.35;3.63;;;;;;;17.00;55.20;95013.16;5083721;28;20024;-76
2023/06/08 04:21:59;;;;;;;5.82;3.72;;;;;;;17.06;55.08;95014.03;5085033;28;20036;-76
2023/06/08 04:24:25;;;;;;;7.22;3.42;;;;;;;17.15;54.76;95013.19;5085527;28;20398;-76
2023/06/08 04:26:50;;;;;;;7.60;3.63;;;;;;;17.12;54.48;95012.13;5083471;28;20055;-76
2023/06/08 04:29:16;;;;;;;7.13;3.72;;;;;;;17.08;54.81;95019.09;5084066;28;20023;-75
2023/06/08 04:31:42;;;;;;;7.68;3.38;;;;;;;17.12;54.58;95017.69;5084838;28;20028;-76
2023/06/08 04:34:08;;;;;;;7.05;3.20;;;;;;;17.19;54.56;95019.31;5083572;28;20020;-75
2023/06/08 04:36:34;;;;;;;7.53;3.72;;;;;;;17.27;54.78;95025.25;5083667;28;20461;-76
2023/06/08 04:39:00;;;;;;;5.75;3.10;;;;;;;17.35;54.67;95021.59;5083626;28;20118;-76
2023/06/08 04:41:25;;;;;;;9.02;3.58;;;;;;;17.42;54.59;95021.22;5087803;28;20052;-77
2023/06/08 04:43:52;;;;;;;8.43;3.80;;;;;;;17.47;54.27;95022.56;5085049;28;20020;-76
2023/06/08 04:46:17;;;;;;;7.13;3.65;;;;;;;17.54;53.74;95013.84;5084929;28;20051;-76
2023/06/08 04:48:43;;;;;;;5.18;3.45;;;;;;;17.60;53.54;95022.25;5083600;28;20031;-75
2023/06/08 04:51:09;;;;;;;6.32;3.58;;;;;;;17.65;53.74;95019.56;5083731;28;20468;-76
2023/06/08 04:53:35;;;;;;;4.10;3.10;;;;;;;17.69;54.10;95019.38;5083742;28;20042;-75
2023/06/08 04:56:02;;;;;;;4.95;3.47;;;;;;;17.74;53.98;95013.94;5084190;28;20100;-76
2023/06/08 04:58:28;;;;;;;7.13;4.18;;;;;;;17.77;54.11;95015.75;5084229;28;20405;-74
2023/06/08 05:00:54;;;;;;;7.32;3.83;;;;;;;17.84;53.78;95016.63;5088326;28;20028;-77
2023/06/08 05:03:20;;;;;;;7.38;4.38;;;;;;;17.85;53.42;95013.34;5083918;28;20043;-77
2023/06/08 05:05:46;;;;;;;8.27;3.95;;;;;;;17.91;53.59;95019.00;5084383;28;20421;-74
2023/06/08 05:08:11;;;;;;;6.80;3.58;;;;;;;17.98;53.25;95021.38;5084896;28;20482;-75
2023/06/08 05:10:37;;;;;;;7.35;3.60;;;;;;;18.04;53.05;95013.88;5084723;28;20024;-75
2023/06/08 05:13:02;;;;;;;8.18;3.50;;;;;;;18.09;53.01;95018.75;5084892;28;20043;-77
2023/06/08 05:15:30;;;;;;;7.75;4.30;;;;;;;18.15;53.13;95016.81;5084635;28;20054;-75
2023/06/08 05:17:56;;;;;;;8.98;3.90;;;;;;;18.15;52.98;95008.47;5066923;28;20551;-77
2023/06/08 05:20:23;;;;;;;8.73;3.88;;;;;;;18.21;52.78;95012.09;5083360;28;20028;-77
2023/06/08 05:22:48;;;;;;;6.35;3.47;;;;;;;18.25;52.71;95009.88;5084677;28;20058;-75
2023/06/08 05:25:14;;;;;;;6.95;4.07;;;;;;;18.34;52.38;95016.56;5084646;28;20027;-75
2023/06/08 05:27:39;;;;;;;5.15;3.80;;;;;;;18.40;52.39;95022.94;5083192;28;20525;-75
2023/06/08 05:30:05;;;;;;;6.65;3.47;;;;;;;18.43;52.49;95024.78;5066923;28;20478;-75
2023/06/08 05:32:31;;;;;;;8.60;3.40;;;;;;;18.47;52.00;95017.00;5087266;28;20383;-76
2023/06/08 05:34:58;;;;;;;7.03;4.20;;;;;;;18.52;51.60;95025.41;5087774;28;20324;-77
2023/06/08 05:37:23;;;;;;;4.68;3.28;;;;;;;18.57;51.50;95023.94;5070758;28;20031;-75
2023/06/08 05:39:49;;;;;;;7.63;3.80;;;;;;;18.62;51.66;95028.03;5088547;28;20020;-75
2023/06/08 05:42:14;;;;;;;6.38;3.63;;;;;;;18.64;51.18;95031.09;5087042;28;20035;-75
2023/06/08 05:44:40;;;;;;;4.53;2.65;;;;;;;18.57;50.76;95023.94;5089558;28;20024;-77
2023/06/08 05:47:05;;;;;;;5.57;3.03;;;;;;;18.72;50.67;95037.81;5087853;28;20038;-76
2023/06/08 05:49:31;;;;;;;6.55;3.17;;;;;;;18.76;50.75;95038.38;5086983;28;20027;-76
2023/06/08 05:51:56;;;;;;;8.73;3.50;;;;;;;18.81;50.63;95026.56;5087399;28;20103;-76
2023/06/08 05:54:22;;;;;;;9.02;3.53;;;;;;;18.83;50.20;95024.78;5090496;28;20089;-75
2023/06/08 05:56:47;;;;;;;4.75;2.80;;;;;;;18.88;50.28;95023.34;5087527;28;20026;-75
2023/06/08 05:59:12;;;;;;;4.68;3.28;;;;;;;18.96;49.92;95023.66;5092722;28;20100;-77
2023/06/08 06:01:38;;;;;;;5.15;3.00;;;;;;;19.04;49.87;95025.53;5093082;28;20035;-74
2023/06/08 06:04:03;;;;;;;5.60;3.50;;;;;;;19.07;49.40;95026.56;5088728;28;20123;-76
2023/06/08 06:06:30;;;;;;;6.28;3.20;;;;;;;19.15;49.75;95024.09;5087616;28;20104;-76
2023/06/08 06:08:55;;;;;;;6.00;3.33;;;;;;;19.22;49.00;95024.47;5087193;28;20027;-76
2023/06/08 06:11:22;;;;;;;7.25;3.30;;;;;;;19.30;48.75;95025.53;5087661;28;20024;-76
2023/06/08 06:13:47;;;;;;;5.88;3.50;;;;;;;19.28;48.23;95027.31;5087027;28;20165;-76
2023/06/08 06:16:13;;;;;;;5.65;3.10;;;;;;;19.40;48.29;95026.13;5086824;28;20103;-76
2023/06/08 06:18:38;;;;;;;7.80;3.85;;;;;;;19.51;47.91;95025.47;5087857;28;20020;-76
2023/06/08 06:21:03;;;;;;;7.05;3.20;;;;;;;19.61;47.70;95021.28;5088004;28;20382;-76
2023/06/08 06:23:29;;;;;;;6.13;3.50;;;;;;;19.63;47.28;95027.13;5086098;28;20491;-76
2023/06/08 06:25:54;;;;;;;5.28;3.28;;;;;;;19.72;47.97;95018.56;5086608;28;20163;-76
2023/06/08 06:28:20;;;;;;;9.13;3.72;;;;;;;19.74;47.24;95013.28;5086015;28;20402;-76
2023/06/08 06:30:45;;;;;;;7.97;3.35;;;;;;;19.83;47.80;95024.25;5086771;28;20028;-76
2023/06/08 06:33:10;;;;;;;9.07;3.35;;;;;;;19.84;47.56;95017.44;5087543;28;20024;-76
2023/06/08 06:35:36;;;;;;;5.15;2.78;;;;;;;19.98;46.81;95021.31;5087698;28;20024;-76
2023/06/08 06:38:01;;;;;;;5.70;3.30;;;;;;;20.07;46.83;95017.56;5086581;28;20394;-76
2023/06/08 06:40:26;;;;;;;6.90;3.15;;;;;;;20.11;46.96;95010.50;5087293;28;20031;-76
2023/06/08 06:42:52;;;;;;;5.65;3.30;;;;;;;20.06;46.44;95008.41;5085587;28;20425;-76
2023/06/08 06:45:17;;;;;;;4.75;2.83;;;;;;;20.13;46.75;95005.19;5086664;28;20034;-76
2023/06/08 06:47:43;;;;;;;7.47;3.20;;;;;;;20.26;46.65;95004.75;5088763;28;20024;-76
2023/06/08 06:50:08;;;;;;;7.18;3.20;;;;;;;20.33;46.31;95000.72;5091941;28;20100;-76
2023/06/08 06:52:34;;;;;;;5.90;3.15;;;;;;;20.44;46.08;95000.78;5088169;28;20028;-76
2023/06/08 06:55:02;;;;;;;4.80;3.10;;;;;;;20.55;46.05;94994.50;5085979;28;20103;-76
2023/06/08 06:57:28;;;;;;;5.18;3.20;;;;;;;20.66;45.76;94995.31;5086069;28;20031;-76
2023/06/08 06:59:54;;;;;;;6.05;3.58;;;;;;;20.76;46.23;95001.47;5086099;28;20588;-76
2023/06/08 07:02:19;;;;;;;5.60;3.08;;;;;;;20.85;46.08;94992.84;5086975;28;20051;-77
2023/06/08 07:04:45;;;;;;;6.15;3.47;;;;;;;20.92;45.24;94992.34;5085580;28;20452;-76
2023/06/08 07:07:10;;;;;;;7.47;2.92;;;;;;;21.05;45.08;94996.72;5086806;28;20660;-76
2023/06/08 07:09:35;;;;;;;6.03;3.25;;;;;;;21.11;44.42;94984.28;5087001;28;20016;-76
2023/06/08 07:12:01;;;;;;;8.93;3.50;;;;;;;21.28;44.95;94980.75;5085402;28;20115;-76
2023/06/08 07:14:26;;;;;;;6.28;3.08;;;;;;;21.40;44.62;94987.91;5086867;28;20070;-76
2023/06/08 07:16:52;;;;;;;9.73;3.50;;;;;;;21.53;44.03;94990.19;5085633;28;20047;-77
2023/06/08 07:19:17;;;;;;;5.03;3.03;;;;;;;21.62;43.54;94987.94;5087203;28;20032;-76
2023/06/08 07:21:43;;;;;;;5.07;3.33;;;;;;;21.74;43.50;94988.69;5085356;28;20854;-76
2023/06/08 07:24:08;;;;;;;8.68;3.40;;;;;;;21.85;42.25;94979.50;5086711;28;20470;-75
2023/06/08 07:26:34;;;;;;;5.32;2.80;;;;;;;21.98;42.20;94977.72;5086606;28;20441;-76
2023/06/08 07:29:00;;;;;;;5.25;3.05;;;;;;;22.08;41.71;94980.22;5084961;28;20024;-76
2023/06/08 07:31:26;;;;;;;4.93;3.15;;;;;;;22.17;42.44;94980.00;5085135;28;20020;-75
2023/06/08 07:33:55;;;;;;;5.97;3.15;;;;;;;22.16;42.22;94978.47;5085138;28;20366;-75
2023/06/08 07:36:20;;;;;;;7.90;3.20;;;;;;;22.28;42.20;94979.97;5068154;28;20035;-76
2023/06/08 07:38:50;;;;;;;5.05;2.88;;;;;;;22.30;41.97;94969.00;5086368;28;20149;-77
2023/06/08 07:41:18;;;;;;;5.57;3.22;;;;;;;22.37;43.26;94970.53;5086549;28;20028;-77
2023/06/08 07:43:44;;;;;;;5.93;3.53;;;;;;;22.51;43.43;94969.47;5088856;28;20057;-75
2023/06/08 07:46:10;;;;;;;7.38;3.17;;;;;;;22.62;42.30;94966.63;5086009;28;20088;-75
2023/06/08 07:48:35;;;;;;;6.20;3.20;;;;;;;22.77;42.05;94966.31;5084724;28;20024;-75
2023/06/08 07:51:00;;;;;;;6.40;3.40;;;;;;;22.89;42.80;94962.19;5086109;28;20024;-76
2023/06/08 07:53:34;;;;;;;7.68;3.50;;;;;;;23.02;42.92;94965.19;5085386;28;20065;-74
2023/06/08 07:56:00;;;;;;;7.10;3.92;;;;;;;23.15;42.18;94961.03;5070042;28;20028;-78
2023/06/08 07:58:25;;;;;;;6.65;3.85;;;;;;;23.33;42.08;94963.19;5084430;28;20375;-76
2023/06/08 08:00:50;;;;;;;5.50;3.53;;;;;;;23.48;42.00;94962.84;5086132;28;20371;-75
2023/06/08 08:03:16;;;;;;;5.28;3.60;;;;;;;23.68;41.63;94961.66;5085816;28;20107;-75
2023/06/08 08:05:41;;;;;;;6.82;3.90;;;;;;;23.85;40.45;94965.09;5084101;28;20055;-75
2023/06/08 08:08:07;;;;;;;6.65;3.22;;;;;;;23.82;40.92;94961.31;5084147;28;20407;-76
2023/06/08 08:10:32;;;;;;;7.30;3.78;;;;;;;24.07;40.46;94973.31;5084661;28;20571;-76
2023/06/08 08:12:57;;;;;;;7.05;3.40;;;;;;;24.21;40.11;94965.78;5084264;28;20028;-76
2023/06/08 08:15:23;;;;;;;8.07;3.92;;;;;;;24.36;40.56;94968.19;5084359;28;20103;-77
2023/06/08 08:17:49;;;;;;;5.50;3.30;;;;;;;24.45;40.03;94962.22;5092976;28;20501;-77
2023/06/08 08:20:14;;;;;;;4.50;3.70;;;;;;;24.56;39.67;94958.53;5085386;28;20034;-77
2023/06/08 08:22:40;;;;;;;8.93;3.88;;;;;;;24.67;38.77;94958.41;5085904;28;20028;-74
2023/06/08 08:25:07;;;;;;;5.30;3.17;;;;;;;24.83;39.09;94957.44;5085516;28;20036;-76
2023/06/08 08:27:32;;;;;;;6.20;3.70;;;;;;;24.80;40.00;94960.53;5084384;28;20379;-77
2023/06/08 08:29:57;;;;;;;8.00;3.90;;;;;;;24.88;40.21;94953.75;5083811;28;20097;-76
2023/06/08 08:32:23;;;;;;;6.18;3.65;;;;;;;25.00;40.10;94954.38;5085728;28;20027;-77
2023/06/08 08:34:50;;;;;;;6.78;3.55;;;;;;;25.08;40.08;94948.94;5085755;28;20047;-77
2023/06/08 08:37:17;;;;;;;6.68;3.80;;;;;;;24.85;38.82;94951.28;5090288;28;20032;-77
2023/06/08 08:39:42;;;;;;;10.88;3.97;;;;;;;24.80;39.06;94952.84;5084112;28;20023;-76
2023/06/08 08:42:11;;;;;;;8.23;3.90;;;;;;;24.88;38.92;94944.56;5083522;28;20482;-74
2023/06/08 08:44:36;;;;;;;6.85;4.40;;;;;;;24.99;39.91;94943.66;5083672;28;20032;-76
2023/06/08 08:47:04;;;;;;;9.75;4.47;;;;;;;25.16;40.23;94942.16;5084718;28;20030;-76
2023/06/08 08:49:36;;;;;;;8.95;5.38;;;;;;;25.34;40.15;94951.88;5067186;28;20032;-77
2023/06/08 08:52:02;;;;;;;6.68;4.35;;;;;;;25.54;40.16;94952.59;5083541;28;20027;-77
2023/06/08 08:54:34;;;;;;;10.15;5.18;;;;;;;25.75;39.93;94952.78;5085578;28;20043;-76
2023/06/08 08:57:00;;;;;;;7.55;5.00;;;;;;;25.92;39.41;94942.00;5067510;28;20032;-74
2023/06/08 08:59:29;;;;;;;6.40;4.13;;;;;;;26.03;38.65;94944.63;5084046;28;20115;-74
2023/06/08 09:01:55;;;;;;;7.38;3.60;;;;;;;26.23;38.86;94940.44;5083675;28;20510;-76
2023/06/08 09:04:23;;;;;;;8.50;4.28;;;;;;;26.39;38.63;94947.81;5066265;28;20067;-75
2023/06/08 09:06:49;;;;;;;6.18;4.05;;;;;;;26.52;38.75;94935.81;5066463;28;20051;-76
2023/06/08 09:09:15;;;;;;;5.03;3.38;;;;;;;26.64;37.48;94925.81;5066756;28;20057;-76
2023/06/08 09:12:01;;;;;;;5.00;3.60;;;;;;;26.79;37.45;94925.25;5083727;28;20520;-76
2023/06/08 09:14:27;;;;;;;7.13;3.40;;;;;;;26.83;37.41;94928.47;5083464;28;20028;-76
2023/06/08 09:16:53;;;;;;;15.55;3.58;;;;;;;26.88;37.36;94927.59;5083075;28;20089;-76
2023/06/08 09:19:19;;;;;;;4.60;3.55;;;;;;;26.94;37.18;94931.06;5083718;28;20425;-77
2023/06/08 09:21:45;;;;;;;6.28;3.58;;;;;;;27.09;37.07;94912.84;5083202;28;20024;-76
2023/06/08 09:24:22;;;;;;;8.57;3.10;;;;;;;27.18;36.78;94915.97;5083340;28;20028;-76
2023/06/08 09:26:55;;;;;;;4.28;3.15;;;;;;;27.22;36.70;94916.38;5083536;28;20027;-76
2023/06/08 09:29:34;;;;;;;5.43;3.40;;;;;;;27.37;36.45;94917.84;5083438;28;20869;-76
2023/06/08 09:32:01;;;;;;;5.93;3.72;;;;;;;27.42;36.86;94922.59;5088513;28;20024;-75
2023/06/08 09:34:29;;;;;;;8.15;3.60;;;;;;;27.51;36.22;94925.69;5083123;28;20074;-76
2023/06/08 09:37:06;;;;;;;6.18;3.55;;;;;;;27.66;36.45;94927.91;5083305;28;20020;-75
2023/06/08 09:39:39;;;;;;;6.30;3.63;;;;;;;27.82;36.28;94928.06;5083338;28;20024;-76
2023/06/08 09:42:06;;;;;;;7.82;3.90;;;;;;;27.95;35.62;94914.63;5065835;28;20031;-75
2023/06/08 09:44:31;;;;;;;7.45;4.78;;;;;;;28.10;35.56;94916.81;5082850;28;20051;-76
2023/06/08 09:46:57;;;;;;;6.13;3.60;;;;;;;28.00;35.51;94916.53;5065711;28;20377;-75
2023/06/08 09:49:22;;;;;;;6.53;3.67;;;;;;;28.00;35.54;94907.31;5083354;28;20020;-75
2023/06/08 09:51:50;;;;;;;9.45;3.90;;;;;;;28.07;34.92;94903.03;5083015;28;20509;-76
2023/06/08 09:54:17;;;;;;;7.28;4.07;;;;;;;28.21;35.06;94907.25;5082995;28;20102;-76
2023/06/08 09:57:01;;;;;;;4.95;3.40;;;;;;;28.37;34.63;94905.31;5084482;28;20031;-76
2023/06/08 09:59:37;;;;;;;6.20;3.90;;;;;;;28.46;34.79;94904.81;5066169;28;20033;-76
2023/06/08 10:02:22;;;;;;;6.13;3.78;;;;;;;28.67;33.88;94897.00;5066054;28;20032;-76
2023/06/08 10:04:55;;;;;;;4.63;2.90;;;;;;;28.75;34.17;94886.47;5084913;28;20042;-76
2023/06/08 10:07:29;;;;;;;5.82;2.70;;;;;;;28.94;33.72;94882.63;5083108;28;20063;-76
2023/06/08 10:10:01;;;;;;;3.63;2.58;;;;;;;29.02;33.38;94883.41;5083091;28;20032;-75
2023/06/08 10:12:28;;;;;;;5.30;3.33;;;;;;;29.16;33.11;94884.00;5082932;28;20103;-77
2023/06/08 10:14:55;;;;;;;4.70;3.63;;;;;;;29.31;33.06;94884.03;5066057;28;20036;-75
2023/06/08 10:17:21;;;;;;;10.27;3.10;;;;;;;29.45;32.44;94879.72;5084636;28;20036;-76
2023/06/08 10:19:46;;;;;;;5.50;3.00;;;;;;;29.52;31.70;94870.50;5086476;28;20479;-75
2023/06/08 10:22:12;;;;;;;5.38;3.10;;;;;;;29.55;32.68;94868.63;5069109;28;20027;-75
2023/06/08 10:24:38;;;;;;;4.65;2.80;;;;;;;29.70;32.02;94862.94;5092164;28;20024;-76
2023/06/08 10:27:17;;;;;;;6.63;2.90;;;;;;;29.84;31.60;94860.69;5087209;28;20016;-76
2023/06/08 10:29:53;;;;;;;6.10;2.60;;;;;;;29.92;31.07;94855.00;5086108;28;20107;-75
2023/06/08 10:32:18;;;;;;;5.75;2.92;;;;;;;30.05;31.62;94857.63;5088685;28;20032;-75
2023/06/08 10:34:44;;;;;;;8.07;3.00;;;;;;;30.15;31.22;94856.50;5094089;28;20025;-74
2023/06/08 10:37:28;;;;;;;5.13;3.05;;;;;;;30.14;29.88;94857.09;5087919;28;20047;-75
2023/06/08 10:39:55;;;;;;;3.58;2.53;;;;;;;29.74;30.58;94854.84;5068998;28;20024;-76
2023/06/08 10:42:20;;;;;;;4.45;2.60;;;;;;;30.04;30.16;94856.13;5085817;28;20610;-75
2023/06/08 10:44:57;;;;;;;3.47;2.67;;;;;;;30.14;29.81;94852.19;5087523;28;20034;-76
2023/06/08 10:47:24;;;;;;;4.60;2.53;;;;;;;29.98;30.28;94856.31;5085442;28;20384;-75
2023/06/08 10:50:06;;;;;;;3.85;2.80;;;;;;;30.20;30.97;94851.22;5085898;28;20129;-75
2023/06/08 10:52:45;;;;;;;4.27;3.10;;;;;;;30.29;30.08;94840.06;5085739;28;20248;-76
2023/06/08 10:55:16;;;;;;;5.10;2.75;;;;;;;30.47;30.24;94840.94;5086813;28;20290;-75
2023/06/08 10:57:46;;;;;;;5.22;3.10;;;;;;;30.63;29.75;94836.75;5085907;28;20486;-76
2023/06/08 11:00:27;;;;;;;4.22;2.60;;;;;;;30.61;29.82;94832.94;5068301;28;20498;-75
2023/06/08 11:02:53;;;;;;;4.90;3.10;;;;;;;30.67;30.18;94825.72;5086939;28;20047;-76
2023/06/08 11:05:19;;;;;;;3.33;2.47;;;;;;;30.84;30.08;94827.94;5084695;28;20115;-75
2023/06/08 11:07:45;;;;;;;6.47;2.60;;;;;;;30.96;29.72;94821.84;5068609;28;20107;-76
2023/06/08 11:10:11;;;;;;;5.50;3.05;;;;;;;31.09;29.40;94816.66;5085418;28;20274;-76
2023/06/08 11:12:37;;;;;;;6.00;3.00;;;;;;;31.13;29.84;94805.66;5068460;28;20110;-76
2023/06/08 11:15:02;;;;;;;4.43;3.00;;;;;;;31.33;29.72;94805.94;5085412;28;20418;-74
2023/06/08 11:17:28;;;;;;;3.58;2.55;;;;;;;31.23;27.11;94805.03;5086663;28;20031;-75
2023/06/08 11:19:53;;;;;;;6.18;2.60;;;;;;;31.36;28.10;94808.34;5090457;28;20932;-75
2023/06/08 11:22:21;;;;;;;4.47;2.65;;;;;;;31.50;27.99;94803.16;5086529;28;20024;-75
2023/06/08 11:24:47;;;;;;;4.22;2.33;;;;;;;31.35;27.94;94801.19;5086528;28;20035;-75
2023/06/08 11:27:19;;;;;;;4.03;2.42;;;;;;;30.75;28.38;94800.22;5084814;28;20028;-77
2023/06/08 11:29:46;;;;;;;6.90;3.78;;;;;;;30.94;29.43;94791.97;5086436;28;20056;-76
2023/06/08 11:32:13;;;;;;;8.02;3.53;;;;;;;31.06;29.14;94792.25;5085087;28;20043;-74
2023/06/08 11:34:45;;;;;;;8.27;3.72;;;;;;;31.25;29.46;94786.09;5084640;28;20146;-75